Time;durP1;ratioP1;P1;durP2;ratioP2;P2;SDS_P1;SDS_P2;PMS_P1;PMS_P2;Temp;Humidity;BMP_temperature;BMP_pressure;BME280_temperature;BME280_humidity;BME280_pressure;Samples;Min_cycle;Max_cycle;Signal;HPM_P1;HPM_P2
2022/01/04 00:01:53;;;;;;;16.98;8.50;;;;;;;;;;5095755;28;20551;-84
2022/01/04 00:04:19;;;;;;;18.95;8.88;;;;;;;;;;5096166;28;20024;-83
2022/01/04 00:06:46;;;;;;;19.80;8.68;;;;;;;;;;5114013;28;20196;-83
2022/01/04 00:09:12;;;;;;;18.48;9.27;;;;;;;;;;5114597;28;20077;-84
2022/01/04 00:11:56;;;;;;;16.15;9.20;;;;;;;;;;5113943;28;20177;-83
2022/01/04 00:14:22;;;;;;;16.48;9.25;;;;;;;;;;5095752;28;20072;-83
2022/01/04 00:16:50;;;;;;;18.50;8.85;;;;;;;;;;5095447;28;20044;-82
2022/01/04 00:19:20;;;;;;;16.33;9.23;;;;;;;;;;5095610;28;20024;-84
2022/01/04 00:21:46;;;;;;;18.90;9.68;;;;;;;;;;5095547;28;20080;-84
2022/01/04 00:24:12;;;;;;;17.08;9.65;;;;;;;;;;5114306;28;20095;-83
2022/01/04 00:26:39;;;;;;;19.48;9.57;;;;;;;;;;5095538;28;20060;-83
2022/01/04 00:29:05;;;;;;;20.73;9.80;;;;;;;;;;5078807;28;20088;-81
2022/01/04 00:31:31;;;;;;;16.83;8.88;;;;;;;;;;5095552;28;20016;-84
2022/01/04 00:33:57;;;;;;;17.52;8.55;;;;;;;;;;5095527;28;20030;-84
2022/01/04 00:36:25;;;;;;;16.90;9.45;;;;;;;;;;5113531;28;20028;-84
2022/01/04 00:38:51;;;;;;;18.95;10.20;;;;;;;;;;5114315;28;20027;-84
2022/01/04 00:41:17;;;;;;;18.30;10.18;;;;;;;;;;5113698;28;20479;-84
2022/01/04 00:43:45;;;;;;;18.75;10.60;;;;;;;;;;5095259;28;20043;-85
2022/01/04 00:46:16;;;;;;;20.52;11.68;;;;;;;;;;5095424;28;20114;-84
2022/01/04 00:51:27;;;;;;;22.27;11.88;;;;;;;;;;5122406;28;20076;-84
2022/01/04 00:53:53;;;;;;;19.33;11.45;;;;;;;;;;5114573;28;20020;-84
2022/01/04 00:56:20;;;;;;;26.35;12.95;;;;;;;;;;5095182;28;20155;-84
2022/01/04 00:58:46;;;;;;;23.75;13.13;;;;;;;;;;5113533;28;20024;-84
2022/01/04 01:01:12;;;;;;;24.52;13.57;;;;;;;;;;5095283;28;20027;-84
2022/01/04 01:03:38;;;;;;;23.73;12.90;;;;;;;;;;5095250;28;20054;-84
2022/01/04 01:06:07;;;;;;;24.38;13.52;;;;;;;;;;5095207;28;20024;-84
2022/01/04 01:08:33;;;;;;;26.08;13.60;;;;;;;;;;5095230;28;20020;-84
2022/01/04 01:10:59;;;;;;;24.50;13.52;;;;;;;;;;5096170;28;20399;-83
2022/01/04 01:13:25;;;;;;;26.40;14.70;;;;;;;;;;5098950;28;20076;-84
2022/01/04 01:15:52;;;;;;;24.90;14.38;;;;;;;;;;5098922;28;20028;-84
2022/01/04 01:18:18;;;;;;;25.27;13.60;;;;;;;;;;5099006;28;20023;-83
2022/01/04 01:20:46;;;;;;;28.50;14.57;;;;;;;;;;5098846;28;20471;-84
2022/01/04 01:23:12;;;;;;;26.02;14.75;;;;;;;;;;5117067;28;20106;-84
2022/01/04 01:25:38;;;;;;;30.67;14.95;;;;;;;;;;5098720;28;20395;-83
2022/01/04 01:28:05;;;;;;;28.92;14.98;;;;;;;;;;5098771;28;20102;-84
2022/01/04 01:30:35;;;;;;;27.25;15.43;;;;;;;;;;5117464;28;20019;-83
2022/01/04 01:33:01;;;;;;;26.90;15.50;;;;;;;;;;5098845;28;20471;-82
2022/01/04 01:35:27;;;;;;;26.63;15.40;;;;;;;;;;5098490;28;20036;-82
2022/01/04 01:37:54;;;;;;;28.65;15.18;;;;;;;;;;5098513;28;20141;-84
2022/01/04 01:40:20;;;;;;;26.52;13.73;;;;;;;;;;5116681;28;20032;-84
2022/01/04 01:42:46;;;;;;;28.20;15.20;;;;;;;;;;5098174;28;20092;-84
2022/01/04 01:45:16;;;;;;;27.52;14.77;;;;;;;;;;5098472;28;20115;-84
2022/01/04 01:47:42;;;;;;;29.40;15.50;;;;;;;;;;5098347;28;20023;-83
2022/01/04 01:50:11;;;;;;;26.73;14.32;;;;;;;;;;5098298;28;20035;-84
2022/01/04 01:52:37;;;;;;;27.08;14.93;;;;;;;;;;5104298;28;20024;-83
2022/01/04 01:55:04;;;;;;;31.80;16.60;;;;;;;;;;5105634;28;20027;-84
2022/01/04 01:57:30;;;;;;;25.80;14.93;;;;;;;;;;5098119;28;20027;-82
2022/01/04 01:59:56;;;;;;;26.63;15.68;;;;;;;;;;5098166;28;20031;-83
2022/01/04 02:02:22;;;;;;;26.27;15.43;;;;;;;;;;5098071;28;20024;-84
2022/01/04 02:04:49;;;;;;;29.95;15.93;;;;;;;;;;5116894;28;20028;-84
2022/01/04 02:07:16;;;;;;;26.48;15.25;;;;;;;;;;5097919;28;20068;-83
2022/01/04 02:09:50;;;;;;;27.40;14.68;;;;;;;;;;5097878;28;20040;-83
2022/01/04 02:12:16;;;;;;;29.38;15.55;;;;;;;;;;5097895;28;20019;-84
2022/01/04 02:14:49;;;;;;;27.42;14.18;;;;;;;;;;5097840;28;20122;-84
2022/01/04 02:17:15;;;;;;;29.03;16.63;;;;;;;;;;5097834;28;20042;-82
2022/01/04 02:19:41;;;;;;;29.60;16.35;;;;;;;;;;5097780;28;20020;-84
2022/01/04 02:22:07;;;;;;;31.15;16.60;;;;;;;;;;5096937;28;20030;-82
2022/01/04 02:24:33;;;;;;;30.92;17.25;;;;;;;;;;5097364;28;20084;-84
2022/01/04 02:27:00;;;;;;;31.52;16.73;;;;;;;;;;5097518;28;20480;-83
2022/01/04 02:29:27;;;;;;;30.55;15.73;;;;;;;;;;5097539;28;20449;-83
2022/01/04 02:31:54;;;;;;;29.45;16.60;;;;;;;;;;5116338;28;20479;-84
2022/01/04 02:34:20;;;;;;;28.33;16.65;;;;;;;;;;5116274;28;20352;-84
2022/01/04 02:36:46;;;;;;;29.20;16.52;;;;;;;;;;5097423;28;20088;-84
2022/01/04 02:39:12;;;;;;;31.17;16.38;;;;;;;;;;5116221;28;20388;-82
2022/01/04 02:41:38;;;;;;;31.33;17.42;;;;;;;;;;5097266;28;20139;-83
2022/01/04 02:44:05;;;;;;;29.70;16.70;;;;;;;;;;5097135;28;20047;-83
2022/01/04 02:46:31;;;;;;;34.50;17.80;;;;;;;;;;5115718;28;20040;-84
2022/01/04 02:48:57;;;;;;;32.88;17.63;;;;;;;;;;5115780;28;20027;-83
2022/01/04 02:51:23;;;;;;;29.63;17.02;;;;;;;;;;5097337;28;20031;-84
2022/01/04 02:53:50;;;;;;;27.80;15.60;;;;;;;;;;5097153;28;20471;-83
2022/01/04 02:56:16;;;;;;;30.00;16.10;;;;;;;;;;5097061;28;20464;-83
2022/01/04 02:58:43;;;;;;;31.70;15.98;;;;;;;;;;5116021;28;20024;-83
2022/01/04 03:01:09;;;;;;;27.38;15.25;;;;;;;;;;5096993;28;20377;-84
2022/01/04 03:03:35;;;;;;;30.85;15.25;;;;;;;;;;5097071;28;20020;-84
2022/01/04 03:06:01;;;;;;;27.90;15.75;;;;;;;;;;5096934;28;20114;-84
2022/01/04 03:08:28;;;;;;;28.38;16.00;;;;;;;;;;5115200;28;20028;-84
2022/01/04 03:10:54;;;;;;;33.65;16.73;;;;;;;;;;5115500;28;20052;-84
2022/01/04 03:13:20;;;;;;;29.73;17.40;;;;;;;;;;5096801;28;20372;-84
2022/01/04 03:15:47;;;;;;;30.02;17.60;;;;;;;;;;5114829;28;20019;-84
2022/01/04 03:18:13;;;;;;;29.80;16.63;;;;;;;;;;5096620;28;20592;-84
2022/01/04 03:20:40;;;;;;;28.95;17.55;;;;;;;;;;5096655;28;20399;-83
2022/01/04 03:23:09;;;;;;;30.83;16.88;;;;;;;;;;5114836;28;20031;-83
2022/01/04 03:25:39;;;;;;;32.83;17.80;;;;;;;;;;5114860;28;20041;-82
2022/01/04 03:28:05;;;;;;;33.55;18.25;;;;;;;;;;5096625;28;20176;-81
2022/01/04 03:30:31;;;;;;;33.05;17.38;;;;;;;;;;5096439;28;20035;-83
2022/01/04 03:32:57;;;;;;;32.50;17.67;;;;;;;;;;5096283;28;20483;-83
2022/01/04 03:35:23;;;;;;;29.90;17.92;;;;;;;;;;5096219;28;20118;-83
2022/01/04 03:37:50;;;;;;;34.83;17.27;;;;;;;;;;5096362;28;20059;-83
2022/01/04 03:40:16;;;;;;;31.10;18.30;;;;;;;;;;5096153;28;20034;-83
2022/01/04 03:42:43;;;;;;;31.60;18.23;;;;;;;;;;5096001;28;20056;-83
2022/01/04 03:45:09;;;;;;;31.73;17.55;;;;;;;;;;5082722;28;20034;-82
2022/01/04 03:47:35;;;;;;;29.95;17.65;;;;;;;;;;5075892;28;20043;-81
2022/01/04 03:50:02;;;;;;;30.42;17.17;;;;;;;;;;5075856;28;20028;-83
2022/01/04 03:52:28;;;;;;;31.00;17.90;;;;;;;;;;5075736;28;20093;-83
2022/01/04 03:54:54;;;;;;;28.92;16.67;;;;;;;;;;5075840;28;20024;-82
2022/01/04 03:57:20;;;;;;;33.20;17.60;;;;;;;;;;5075729;28;20123;-82
2022/01/04 03:59:46;;;;;;;29.70;16.17;;;;;;;;;;5093780;28;20024;-83
2022/01/04 04:02:13;;;;;;;30.48;16.30;;;;;;;;;;5075714;28;20071;-83
2022/01/04 04:04:39;;;;;;;30.65;17.20;;;;;;;;;;5094315;28;20369;-82
2022/01/04 04:07:06;;;;;;;30.85;17.10;;;;;;;;;;5093775;28;20145;-83
2022/01/04 04:09:34;;;;;;;32.15;16.33;;;;;;;;;;5107734;28;20047;-83
2022/01/04 04:12:01;;;;;;;33.45;16.38;;;;;;;;;;5094350;28;20043;-84
2022/01/04 04:14:29;;;;;;;30.67;17.33;;;;;;;;;;5075749;28;20028;-82
2022/01/04 04:16:55;;;;;;;26.80;16.45;;;;;;;;;;5075844;28;20127;-84
2022/01/04 04:19:21;;;;;;;28.45;15.45;;;;;;;;;;5093650;28;20362;-84
2022/01/04 04:21:48;;;;;;;29.27;15.43;;;;;;;;;;5075883;28;20020;-84
2022/01/04 04:24:14;;;;;;;27.77;15.27;;;;;;;;;;5075442;28;20032;-83
2022/01/04 04:26:40;;;;;;;28.98;15.95;;;;;;;;;;5094054;28;20024;-83
2022/01/04 04:29:06;;;;;;;27.70;16.05;;;;;;;;;;5075426;28;20024;-84
2022/01/04 04:31:32;;;;;;;29.25;16.67;;;;;;;;;;5075376;28;20087;-84
2022/01/04 04:33:59;;;;;;;29.92;16.40;;;;;;;;;;5075491;28;20028;-84
2022/01/04 04:36:27;;;;;;;30.00;16.13;;;;;;;;;;5075305;28;20043;-84
2022/01/04 04:38:53;;;;;;;24.83;14.93;;;;;;;;;;5075338;28;20020;-84
2022/01/04 04:41:19;;;;;;;27.27;14.48;;;;;;;;;;5093417;28;20522;-84
2022/01/04 04:43:45;;;;;;;27.20;15.27;;;;;;;;;;5071715;28;20044;-84
2022/01/04 04:46:12;;;;;;;25.48;15.98;;;;;;;;;;5073327;28;20032;-84
2022/01/04 04:48:38;;;;;;;34.25;16.95;;;;;;;;;;5077161;28;20036;-84
2022/01/04 04:51:04;;;;;;;30.55;15.77;;;;;;;;;;5075873;28;20082;-84
2022/01/04 04:53:30;;;;;;;28.92;16.02;;;;;;;;;;5077125;28;20027;-83
2022/01/04 04:55:56;;;;;;;33.55;17.42;;;;;;;;;;5076247;28;20040;-84
2022/01/04 04:58:23;;;;;;;29.15;16.52;;;;;;;;;;5079059;28;20457;-84
2022/01/04 05:00:49;;;;;;;31.77;17.50;;;;;;;;;;5076759;28;20096;-84
2022/01/04 05:03:15;;;;;;;29.27;16.02;;;;;;;;;;5076928;28;20024;-84
2022/01/04 05:05:41;;;;;;;31.35;17.83;;;;;;;;;;5077462;28;20025;-84
2022/01/04 05:08:07;;;;;;;31.35;17.05;;;;;;;;;;5075877;28;20029;-85
2022/01/04 05:10:33;;;;;;;27.65;15.73;;;;;;;;;;5075928;28;20025;-86
2022/01/04 05:13:00;;;;;;;26.67;15.63;;;;;;;;;;5075559;28;20177;-84
2022/01/04 05:15:26;;;;;;;30.85;17.42;;;;;;;;;;5075735;28;20028;-87
2022/01/04 05:17:52;;;;;;;31.38;17.55;;;;;;;;;;5076219;28;20115;-86
2022/01/04 05:20:18;;;;;;;32.95;16.77;;;;;;;;;;5076169;28;20074;-87
2022/01/04 05:22:44;;;;;;;27.25;16.05;;;;;;;;;;5076248;28;20024;-87
2022/01/04 05:25:10;;;;;;;32.28;17.67;;;;;;;;;;5076492;28;20024;-87
2022/01/04 05:27:37;;;;;;;28.13;17.17;;;;;;;;;;5076398;28;20116;-87
2022/01/04 05:30:04;;;;;;;30.58;16.77;;;;;;;;;;5076132;28;20024;-88
2022/01/04 05:32:30;;;;;;;31.83;17.65;;;;;;;;;;5076222;28;20037;-87
2022/01/04 05:34:57;;;;;;;31.98;18.08;;;;;;;;;;5076545;28;20028;-88
2022/01/04 05:37:23;;;;;;;35.88;18.27;;;;;;;;;;5076274;28;20035;-90
2022/01/04 05:39:49;;;;;;;31.30;16.63;;;;;;;;;;5076107;28;20032;-86
2022/01/04 05:42:15;;;;;;;30.08;17.20;;;;;;;;;;5077100;28;20024;-87
2022/01/04 05:44:42;;;;;;;34.85;18.15;;;;;;;;;;5079309;28;20036;-85
2022/01/04 05:47:08;;;;;;;34.67;18.55;;;;;;;;;;5079168;28;20047;-86
2022/01/04 05:49:34;;;;;;;34.00;18.75;;;;;;;;;;5079184;28;20054;-87
2022/01/04 05:52:00;;;;;;;38.42;17.88;;;;;;;;;;5079067;28;20024;-85
2022/01/04 05:54:26;;;;;;;32.80;17.48;;;;;;;;;;5078938;28;20032;-87
2022/01/04 05:56:53;;;;;;;31.60;17.92;;;;;;;;;;5077881;28;20507;-85
2022/01/04 05:59:19;;;;;;;32.33;18.00;;;;;;;;;;5078084;28;20038;-88
2022/01/04 06:01:45;;;;;;;31.77;17.35;;;;;;;;;;5078992;28;20027;-89
2022/01/04 06:04:11;;;;;;;35.92;18.10;;;;;;;;;;5079698;28;20441;-89
2022/01/04 06:06:41;;;;;;;35.58;18.13;;;;;;;;;;5078783;28;20145;-87
2022/01/04 06:09:15;;;;;;;35.38;17.63;;;;;;;;;;5078886;28;20087;-88
2022/01/04 06:16:52;;;;;;;34.42;18.88;;;;;;;;;;5096316;28;20507;-86
2022/01/04 06:19:18;;;;;;;36.45;19.02;;;;;;;;;;5077861;28;20051;-87
2022/01/04 06:21:44;;;;;;;36.95;19.38;;;;;;;;;;5078514;28;20028;-86
2022/01/04 06:24:10;;;;;;;35.75;18.88;;;;;;;;;;5078600;28;20020;-86
2022/01/04 06:26:36;;;;;;;32.10;18.67;;;;;;;;;;5078534;28;20024;-86
2022/01/04 06:29:03;;;;;;;34.70;18.70;;;;;;;;;;5078096;28;20020;-77
2022/01/04 06:31:30;;;;;;;30.80;17.98;;;;;;;;;;5077169;28;20041;-79
2022/01/04 06:33:56;;;;;;;30.55;17.08;;;;;;;;;;5077450;28;20020;-81
2022/01/04 06:36:22;;;;;;;35.10;19.08;;;;;;;;;;5076849;28;20036;-82
2022/01/04 06:38:49;;;;;;;33.28;17.25;;;;;;;;;;5095226;28;20024;-82
2022/01/04 06:41:15;;;;;;;32.90;18.23;;;;;;;;;;5076992;28;20035;-79
2022/01/04 06:43:41;;;;;;;32.78;17.15;;;;;;;;;;5076819;28;20047;-79
2022/01/04 06:46:11;;;;;;;32.20;16.77;;;;;;;;;;5095056;28;20108;-87
2022/01/04 06:48:37;;;;;;;32.00;17.65;;;;;;;;;;5095664;28;20024;-81
2022/01/04 06:51:03;;;;;;;33.28;18.75;;;;;;;;;;5094980;28;20557;-78
2022/01/04 06:53:30;;;;;;;37.15;18.73;;;;;;;;;;5076857;28;20058;-79
2022/01/04 06:55:56;;;;;;;31.60;17.58;;;;;;;;;;5076542;28;20040;-76
2022/01/04 06:58:22;;;;;;;34.17;18.13;;;;;;;;;;5094811;28;20065;-79
2022/01/04 07:00:48;;;;;;;33.30;18.15;;;;;;;;;;5076782;28;20024;-77
2022/01/04 07:03:14;;;;;;;31.88;18.05;;;;;;;;;;5094761;28;20028;-78
2022/01/04 07:05:40;;;;;;;31.55;17.80;;;;;;;;;;5076388;28;20023;-77
2022/01/04 07:08:06;;;;;;;33.50;18.08;;;;;;;;;;5095029;28;20032;-78
2022/01/04 07:10:32;;;;;;;30.65;16.70;;;;;;;;;;5094588;28;20032;-77
2022/01/04 07:12:58;;;;;;;32.20;16.95;;;;;;;;;;5076301;28;20045;-77
2022/01/04 07:15:24;;;;;;;31.08;16.73;;;;;;;;;;5094562;28;20032;-79
2022/01/04 07:17:51;;;;;;;35.80;16.83;;;;;;;;;;5094341;28;20056;-78
2022/01/04 07:20:17;;;;;;;33.33;15.93;;;;;;;;;;5077380;28;20077;-86
2022/01/04 07:22:43;;;;;;;35.33;17.17;;;;;;;;;;5094482;28;20031;-79
2022/01/04 07:25:09;;;;;;;29.13;15.93;;;;;;;;;;5094336;28;20032;-83
2022/01/04 07:27:35;;;;;;;29.63;15.45;;;;;;;;;;5076161;28;20498;-80
2022/01/04 07:30:02;;;;;;;29.48;16.25;;;;;;;;;;5094125;28;20069;-80
2022/01/04 07:32:28;;;;;;;31.25;17.08;;;;;;;;;;5094255;28;20024;-80
2022/01/04 07:34:54;;;;;;;29.40;15.90;;;;;;;;;;5076234;28;20035;-81
2022/01/04 07:37:21;;;;;;;32.92;16.33;;;;;;;;;;5094000;28;20032;-78
2022/01/04 07:39:47;;;;;;;28.83;15.27;;;;;;;;;;5075997;28;20115;-82
2022/01/04 07:42:14;;;;;;;30.35;15.45;;;;;;;;;;5075553;28;20035;-79
2022/01/04 07:44:40;;;;;;;29.35;15.90;;;;;;;;;;5093929;28;20025;-78
2022/01/04 07:47:07;;;;;;;28.75;15.38;;;;;;;;;;5093889;28;20375;-79
2022/01/04 07:49:34;;;;;;;29.00;14.15;;;;;;;;;;5076259;28;20054;-78
2022/01/04 07:52:00;;;;;;;24.10;14.43;;;;;;;;;;5075819;28;20020;-80
2022/01/04 07:54:27;;;;;;;24.67;13.05;;;;;;;;;;5075752;28;20034;-84
2022/01/04 07:56:53;;;;;;;25.75;12.60;;;;;;;;;;5076003;28;20373;-79
2022/01/04 07:59:21;;;;;;;26.13;13.52;;;;;;;;;;5093720;28;20171;-78
2022/01/04 08:01:47;;;;;;;24.60;12.57;;;;;;;;;;5075496;28;20027;-78
2022/01/04 08:04:13;;;;;;;25.95;13.00;;;;;;;;;;5075592;28;20028;-77
2022/01/04 08:06:40;;;;;;;22.20;12.13;;;;;;;;;;5093554;28;20035;-78
2022/01/04 08:09:06;;;;;;;28.08;13.05;;;;;;;;;;5093729;28;20024;-78
2022/01/04 08:11:32;;;;;;;27.90;13.27;;;;;;;;;;5076747;28;20024;-78
2022/01/04 08:13:59;;;;;;;23.10;12.65;;;;;;;;;;5075433;28;20032;-79
2022/01/04 08:16:27;;;;;;;26.35;13.40;;;;;;;;;;5075774;28;20036;-77
2022/01/04 08:18:53;;;;;;;29.98;12.88;;;;;;;;;;5075895;28;20043;-80
2022/01/04 08:21:19;;;;;;;23.88;12.77;;;;;;;;;;5075441;28;20039;-86
2022/01/04 08:23:45;;;;;;;24.30;12.68;;;;;;;;;;5076160;28;20020;-81
2022/01/04 08:26:11;;;;;;;23.27;12.27;;;;;;;;;;5075918;28;20468;-81
2022/01/04 08:28:38;;;;;;;24.65;13.23;;;;;;;;;;5094017;28;20101;-81
2022/01/04 08:31:05;;;;;;;26.25;13.38;;;;;;;;;;5076089;28;20103;-81
2022/01/04 08:33:31;;;;;;;25.55;12.43;;;;;;;;;;5093797;28;20030;-81
2022/01/04 08:35:57;;;;;;;23.10;11.85;;;;;;;;;;5076234;28;20547;-80
2022/01/04 08:38:23;;;;;;;19.90;9.40;;;;;;;;;;5094055;28;20033;-81
2022/01/04 08:40:49;;;;;;;24.20;10.88;;;;;;;;;;5075407;28;20063;-81
2022/01/04 08:43:16;;;;;;;18.02;8.52;;;;;;;;;;5075222;28;20055;-81
2022/01/04 08:45:43;;;;;;;22.13;10.02;;;;;;;;;;5075070;28;20035;-81
2022/01/04 08:48:09;;;;;;;24.17;12.00;;;;;;;;;;5093171;28;20036;-83
2022/01/04 08:50:35;;;;;;;21.92;10.13;;;;;;;;;;5074968;28;20016;-83
2022/01/04 08:53:02;;;;;;;21.67;8.93;;;;;;;;;;5074935;28;20030;-82
2022/01/04 08:55:28;;;;;;;15.35;7.60;;;;;;;;;;5074756;28;20103;-81
2022/01/04 08:57:54;;;;;;;18.10;8.93;;;;;;;;;;5092995;28;20063;-82
2022/01/04 09:00:20;;;;;;;15.27;7.03;;;;;;;;;;5074851;28;20017;-81
2022/01/04 09:02:47;;;;;;;16.15;7.18;;;;;;;;;;5075175;28;20028;-81
2022/01/04 09:05:13;;;;;;;17.83;7.38;;;;;;;;;;5075007;28;20016;-80
2022/01/04 09:07:39;;;;;;;15.27;7.07;;;;;;;;;;5080969;28;20042;-80
2022/01/04 09:10:06;;;;;;;15.82;7.05;;;;;;;;;;5078684;28;20055;-79
2022/01/04 09:12:48;;;;;;;16.67;7.05;;;;;;;;;;5092890;28;20024;-80
2022/01/04 09:20:41;;;;;;;17.38;8.40;;;;;;;;;;5093157;28;20035;-80
2022/01/04 09:23:07;;;;;;;16.10;6.75;;;;;;;;;;5074201;28;20020;-79
2022/01/04 09:25:33;;;;;;;14.82;6.45;;;;;;;;;;5074703;28;20036;-78
2022/01/04 09:27:59;;;;;;;17.92;10.10;;;;;;;;;;5074476;28;20047;-78
2022/01/04 09:30:25;;;;;;;16.17;7.53;;;;;;;;;;5074648;28;20115;-79
2022/01/04 09:32:52;;;;;;;16.65;7.53;;;;;;;;;;5076902;28;20043;-78
2022/01/04 09:35:18;;;;;;;20.35;8.20;;;;;;;;;;5078136;28;20085;-84
2022/01/04 09:37:44;;;;;;;15.93;7.13;;;;;;;;;;5078165;28;20032;-81
2022/01/04 09:40:11;;;;;;;18.13;9.90;;;;;;;;;;5078171;28;20024;-77
2022/01/04 09:42:37;;;;;;;17.70;9.02;;;;;;;;;;5074434;28;20470;-79
2022/01/04 09:45:04;;;;;;;22.48;8.93;;;;;;;;;;5074753;28;20358;-81
2022/01/04 09:47:30;;;;;;;18.25;9.63;;;;;;;;;;5075728;28;20024;-80
2022/01/04 09:49:58;;;;;;;19.38;10.57;;;;;;;;;;5074658;28;20039;-78
2022/01/04 09:52:24;;;;;;;15.32;8.40;;;;;;;;;;5074548;28;20028;-78
2022/01/04 09:54:52;;;;;;;20.52;9.45;;;;;;;;;;5074575;28;20111;-78
2022/01/04 09:57:18;;;;;;;19.90;9.27;;;;;;;;;;5075764;28;20044;-82
2022/01/04 09:59:44;;;;;;;16.65;8.73;;;;;;;;;;5074191;28;20021;-81
2022/01/04 10:02:14;;;;;;;14.45;7.45;;;;;;;;;;5074269;28;20024;-85
2022/01/04 10:04:40;;;;;;;16.00;7.45;;;;;;;;;;5078988;28;20129;-82
2022/01/04 10:07:07;;;;;;;17.10;7.68;;;;;;;;;;5077236;28;20507;-82
2022/01/04 10:09:48;;;;;;;17.15;8.55;;;;;;;;;;5074352;28;20501;-83
2022/01/04 10:12:18;;;;;;;18.42;9.00;;;;;;;;;;5074211;28;20028;-82
2022/01/04 10:14:46;;;;;;;17.60;7.70;;;;;;;;;;5074243;28;20025;-82
2022/01/04 10:17:14;;;;;;;14.98;8.27;;;;;;;;;;5074134;28;20043;-83
2022/01/04 10:19:44;;;;;;;16.17;8.18;;;;;;;;;;5073990;28;20032;-83
2022/01/04 10:22:13;;;;;;;16.00;7.95;;;;;;;;;;5074066;28;20153;-81
2022/01/04 10:24:40;;;;;;;15.98;7.90;;;;;;;;;;5073950;28;20027;-81
2022/01/04 10:27:26;;;;;;;14.07;6.97;;;;;;;;;;5073943;28;20056;-81
2022/01/04 10:30:11;;;;;;;17.95;8.05;;;;;;;;;;5075203;28;20017;-82
2022/01/04 10:32:44;;;;;;;15.38;8.07;;;;;;;;;;5073940;28;20056;-81
2022/01/04 10:35:10;;;;;;;18.42;8.85;;;;;;;;;;5073831;28;20154;-82
2022/01/04 10:37:39;;;;;;;16.42;8.60;;;;;;;;;;5073746;28;20409;-83
2022/01/04 10:40:05;;;;;;;14.07;8.38;;;;;;;;;;5075001;28;20469;-83
2022/01/04 10:42:32;;;;;;;15.20;8.15;;;;;;;;;;5073519;28;20052;-81
2022/01/04 10:44:58;;;;;;;19.25;9.30;;;;;;;;;;5073016;28;20057;-84
2022/01/04 10:47:29;;;;;;;18.17;9.27;;;;;;;;;;5073621;28;20078;-82
2022/01/04 10:49:56;;;;;;;18.58;8.05;;;;;;;;;;5073477;28;20094;-82
2022/01/04 10:52:33;;;;;;;15.13;7.93;;;;;;;;;;5073514;28;20024;-81
2022/01/04 10:55:13;;;;;;;14.65;7.53;;;;;;;;;;5073677;28;20510;-81
2022/01/04 10:57:39;;;;;;;17.20;8.35;;;;;;;;;;5074570;28;20074;-81
2022/01/04 11:00:22;;;;;;;16.42;8.00;;;;;;;;;;5073318;28;20038;-83
2022/01/04 11:02:48;;;;;;;17.55;8.20;;;;;;;;;;5073235;28;20024;-80
2022/01/04 11:05:20;;;;;;;16.92;8.65;;;;;;;;;;5073228;28;20428;-83
2022/01/04 11:07:59;;;;;;;13.13;7.60;;;;;;;;;;5073133;28;20077;-83
2022/01/04 11:10:27;;;;;;;16.73;7.85;;;;;;;;;;5074323;28;20550;-83
2022/01/04 11:12:54;;;;;;;14.02;6.25;;;;;;;;;;5073090;28;20052;-83
2022/01/04 11:15:21;;;;;;;12.30;5.10;;;;;;;;;;5072887;28;20032;-82
2022/01/04 11:17:47;;;;;;;10.57;5.35;;;;;;;;;;5072949;28;20028;-81
2022/01/04 11:20:13;;;;;;;12.07;5.35;;;;;;;;;;5072969;28;20376;-83
2022/01/04 11:22:40;;;;;;;9.35;5.10;;;;;;;;;;5073039;28;20040;-84
2022/01/04 11:25:07;;;;;;;13.15;5.25;;;;;;;;;;5072865;28;20489;-83
2022/01/04 11:27:38;;;;;;;11.93;4.97;;;;;;;;;;5073138;28;20493;-83
2022/01/04 11:30:07;;;;;;;11.38;5.88;;;;;;;;;;5072925;28;20145;-83
2022/01/04 11:32:37;;;;;;;9.88;5.45;;;;;;;;;;5072574;28;20465;-81
2022/01/04 11:35:16;;;;;;;12.30;5.25;;;;;;;;;;5076349;28;20032;-83
2022/01/04 11:37:51;;;;;;;14.77;7.07;;;;;;;;;;5082400;28;20036;-81
2022/01/04 11:40:22;;;;;;;14.80;7.13;;;;;;;;;;5075952;28;20502;-80
2022/01/04 11:42:48;;;;;;;14.15;6.70;;;;;;;;;;5072324;28;20047;-82
2022/01/04 11:45:16;;;;;;;12.93;6.53;;;;;;;;;;5072394;28;20393;-82
2022/01/04 11:47:47;;;;;;;13.57;6.60;;;;;;;;;;5072292;28;20025;-81
2022/01/04 11:50:17;;;;;;;12.65;6.25;;;;;;;;;;5072678;28;20078;-82
2022/01/04 11:52:49;;;;;;;12.27;5.60;;;;;;;;;;5072640;28;20029;-82
2022/01/04 11:55:24;;;;;;;12.20;6.35;;;;;;;;;;5073232;28;20074;-82
2022/01/04 11:57:52;;;;;;;12.25;5.97;;;;;;;;;;5072095;28;20039;-82
2022/01/04 12:00:25;;;;;;;14.55;6.78;;;;;;;;;;5072204;28;20032;-83
2022/01/04 12:03:10;;;;;;;14.50;6.70;;;;;;;;;;5072241;28;20025;-83
2022/01/04 12:05:39;;;;;;;13.95;6.97;;;;;;;;;;5072120;28;20032;-79
2022/01/04 12:08:34;;;;;;;13.15;7.32;;;;;;;;;;5072149;28;20056;-79
2022/01/04 12:11:00;;;;;;;12.13;6.30;;;;;;;;;;5060354;28;20032;-83
2022/01/04 12:13:46;;;;;;;13.65;6.60;;;;;;;;;;5072478;28;20035;-80
2022/01/04 12:16:12;;;;;;;13.40;6.95;;;;;;;;;;5072026;28;20064;-81
2022/01/04 12:18:38;;;;;;;12.88;6.70;;;;;;;;;;5071992;28;20028;-81
2022/01/04 12:21:15;;;;;;;12.20;6.30;;;;;;;;;;5071990;28;20058;-79
2022/01/04 12:23:48;;;;;;;12.15;6.30;;;;;;;;;;5071767;28;20082;-83
2022/01/04 12:26:14;;;;;;;11.77;6.45;;;;;;;;;;5072632;28;20029;-78
2022/01/04 12:28:42;;;;;;;16.88;6.88;;;;;;;;;;5072463;28;20119;-78
2022/01/04 12:31:20;;;;;;;16.08;6.75;;;;;;;;;;5071912;28;20430;-80
2022/01/04 12:33:46;;;;;;;15.23;6.78;;;;;;;;;;5071678;28;20020;-79
2022/01/04 12:36:23;;;;;;;14.85;6.25;;;;;;;;;;5071830;28;20029;-79
2022/01/04 12:38:50;;;;;;;12.40;6.25;;;;;;;;;;5073138;28;20029;-80
2022/01/04 12:41:17;;;;;;;13.77;6.95;;;;;;;;;;5073085;28;20401;-76
2022/01/04 12:43:47;;;;;;;13.80;6.15;;;;;;;;;;5071467;28;20389;-77
2022/01/04 12:46:14;;;;;;;13.07;6.35;;;;;;;;;;5071734;28;20020;-76
2022/01/04 12:48:44;;;;;;;10.57;5.78;;;;;;;;;;5071798;28;20025;-76
2022/01/04 12:51:24;;;;;;;15.10;6.50;;;;;;;;;;5073219;28;20032;-77
2022/01/04 12:53:50;;;;;;;22.92;9.38;;;;;;;;;;5072850;28;20021;-79
2022/01/04 12:56:16;;;;;;;24.23;9.85;;;;;;;;;;5072880;28;20036;-78
2022/01/04 12:58:43;;;;;;;19.85;8.65;;;;;;;;;;5071866;28;20029;-78
2022/01/04 13:01:09;;;;;;;17.95;8.25;;;;;;;;;;5072669;28;20043;-76
2022/01/04 13:03:36;;;;;;;14.02;7.53;;;;;;;;;;5072789;28;20020;-75
2022/01/04 13:06:04;;;;;;;18.17;8.73;;;;;;;;;;5071034;28;20033;-76
2022/01/04 13:08:35;;;;;;;16.85;7.63;;;;;;;;;;5075866;28;20025;-76
2022/01/04 13:11:08;;;;;;;14.57;7.40;;;;;;;;;;5076725;28;20103;-75
2022/01/04 13:13:34;;;;;;;17.00;7.38;;;;;;;;;;5076581;28;20042;-75
2022/01/04 13:16:19;;;;;;;16.13;7.82;;;;;;;;;;5076310;28;20036;-75
2022/01/04 13:18:45;;;;;;;13.48;7.63;;;;;;;;;;5076306;28;20024;-77
2022/01/04 13:21:12;;;;;;;17.50;8.23;;;;;;;;;;5075204;28;20106;-76
2022/01/04 13:23:42;;;;;;;15.60;7.93;;;;;;;;;;5076397;28;20029;-75
2022/01/04 13:26:11;;;;;;;16.55;8.45;;;;;;;;;;5074980;28;20032;-75
2022/01/04 13:28:41;;;;;;;18.10;9.05;;;;;;;;;;5074928;28;20025;-76
2022/01/04 13:31:18;;;;;;;17.05;9.57;;;;;;;;;;5074765;28;20024;-76
2022/01/04 13:33:45;;;;;;;20.63;8.55;;;;;;;;;;5076105;28;20016;-76
2022/01/04 13:36:11;;;;;;;18.92;8.90;;;;;;;;;;5075071;28;20469;-79
2022/01/04 13:38:38;;;;;;;22.15;8.27;;;;;;;;;;5076427;28;20063;-76
2022/01/04 13:41:05;;;;;;;19.15;7.70;;;;;;;;;;5076038;28;20028;-77
2022/01/04 13:43:37;;;;;;;14.45;7.85;;;;;;;;;;5087828;28;20048;-76
2022/01/04 13:46:06;;;;;;;14.27;7.90;;;;;;;;;;5096261;28;20016;-76
2022/01/04 13:48:34;;;;;;;15.13;8.02;;;;;;;;;;5096158;28;20468;-76
2022/01/04 13:51:14;;;;;;;16.63;8.55;;;;;;;;;;5077947;28;20016;-76
2022/01/04 13:53:42;;;;;;;14.85;8.55;;;;;;;;;;5077906;28;20051;-75
2022/01/04 13:56:08;;;;;;;19.50;9.40;;;;;;;;;;5077826;28;20119;-75
2022/01/04 13:58:43;;;;;;;18.05;10.18;;;;;;;;;;5095952;28;20035;-75
2022/01/04 14:01:15;;;;;;;19.92;10.23;;;;;;;;;;5096005;28;20024;-75
2022/01/04 14:03:41;;;;;;;20.48;10.00;;;;;;;;;;5077573;28;20031;-76
2022/01/04 14:06:26;;;;;;;17.35;10.45;;;;;;;;;;5077596;28;20024;-77
2022/01/04 14:08:53;;;;;;;19.05;9.52;;;;;;;;;;5077405;28;20031;-78
2022/01/04 14:11:23;;;;;;;21.67;10.07;;;;;;;;;;5077790;28;20067;-77
2022/01/04 14:13:50;;;;;;;19.23;9.73;;;;;;;;;;5077318;28;20035;-78
2022/01/04 14:16:17;;;;;;;20.17;10.00;;;;;;;;;;5077189;28;20036;-76
2022/01/04 14:19:05;;;;;;;20.27;10.25;;;;;;;;;;5076545;28;20028;-76
2022/01/04 14:21:54;;;;;;;18.48;9.60;;;;;;;;;;5077450;28;20028;-76
2022/01/04 14:24:35;;;;;;;19.52;10.13;;;;;;;;;;5077583;28;20024;-76
2022/01/04 14:27:03;;;;;;;19.40;10.20;;;;;;;;;;5095309;28;20141;-76
2022/01/04 14:29:34;;;;;;;20.35;11.13;;;;;;;;;;5095232;28;20070;-75
2022/01/04 14:32:04;;;;;;;21.25;10.88;;;;;;;;;;5077270;28;20039;-75
2022/01/04 14:34:30;;;;;;;22.38;11.38;;;;;;;;;;5076986;28;20020;-76
2022/01/04 14:36:58;;;;;;;21.33;10.88;;;;;;;;;;5076961;28;20043;-75
2022/01/04 14:39:25;;;;;;;18.10;10.48;;;;;;;;;;5077015;28;20020;-81